createdAt,value
2023-07-18T00:04:09.082Z,1.00
2023-07-18T00:09:10.827Z,1.17
2023-07-18T00:14:12.420Z,1.05
2023-07-18T00:19:13.981Z,1.35
2023-07-18T00:24:16.190Z,1.48
2023-07-18T00:29:18.182Z,1.70
2023-07-18T00:34:19.909Z,1.50
2023-07-18T00:39:21.502Z,1.08
2023-07-18T00:44:23.070Z,1.20
2023-07-18T00:49:26.818Z,1.23
2023-07-18T00:54:29.667Z,1.40
2023-07-18T00:59:32.361Z,1.33
2023-07-18T01:04:33.935Z,1.25
2023-07-18T01:09:35.525Z,1.45
2023-07-18T01:14:37.099Z,1.20
2023-07-18T01:19:38.917Z,1.63
2023-07-18T01:24:40.688Z,1.13
2023-07-18T01:29:42.096Z,1.23
2023-07-18T01:34:43.484Z,1.23
2023-07-18T01:39:45.377Z,1.30
2023-07-18T01:44:46.825Z,1.50
2023-07-18T01:49:48.639Z,1.23
2023-07-18T01:54:50.049Z,1.65
2023-07-18T01:59:53.577Z,0.90
2023-07-18T02:04:57.051Z,0.90
2023-07-18T02:10:00.969Z,1.20
2023-07-18T02:15:06.474Z,0.95
2023-07-18T02:20:10.519Z,1.50
2023-07-18T02:25:13.223Z,1.15
2023-07-18T02:30:15.406Z,1.30
2023-07-18T02:35:20.020Z,1.23
2023-07-18T02:40:22.952Z,1.23
2023-07-18T02:45:24.583Z,1.33
2023-07-18T02:50:27.340Z,1.25
2023-07-18T02:55:29.066Z,1.30
2023-07-18T03:00:32.559Z,1.08
2023-07-18T03:05:34.344Z,0.85
2023-07-18T03:10:38.802Z,1.50
2023-07-18T03:15:41.135Z,1.27
2023-07-18T03:20:42.707Z,1.50
2023-07-18T03:25:44.945Z,1.30
2023-07-18T03:30:46.790Z,1.17
2023-07-18T03:35:51.086Z,1.17
2023-07-18T03:40:54.061Z,1.40
2023-07-18T03:45:56.105Z,1.40
2023-07-18T03:50:57.705Z,1.20
2023-07-18T03:56:07.195Z,1.33
2023-07-18T04:01:11.556Z,1.30
2023-07-18T04:06:13.201Z,1.20
2023-07-18T04:11:14.799Z,1.10
2023-07-18T04:16:16.526Z,1.17
2023-07-18T04:21:18.384Z,1.58
2023-07-18T04:26:20.158Z,1.05
2023-07-18T04:31:22.217Z,1.40
2023-07-18T04:36:25.483Z,1.30
2023-07-18T04:41:30.743Z,1.50
2023-07-18T04:46:39.713Z,0.95
2023-07-18T04:51:41.591Z,1.13
2023-07-18T04:56:43.674Z,1.00
2023-07-18T05:01:45.365Z,1.23
2023-07-18T05:06:46.995Z,1.20
2023-07-18T05:11:48.915Z,1.20
2023-07-18T05:16:50.544Z,1.05
2023-07-18T05:21:52.125Z,1.05
2023-07-18T05:26:54.094Z,1.10
2023-07-18T05:31:59.682Z,1.33
2023-07-18T05:37:02.157Z,1.15
2023-07-18T05:42:03.942Z,1.08
2023-07-18T05:47:06.389Z,0.90
2023-07-18T05:52:08.240Z,1.65
2023-07-18T05:57:10.318Z,0.88
2023-07-18T06:02:12.223Z,1.33
2023-07-18T06:07:14.051Z,1.02
2023-07-18T06:12:15.647Z,1.20
2023-07-18T06:17:17.760Z,1.23
2023-07-18T06:22:19.549Z,1.02
2023-07-18T06:27:21.228Z,1.10
2023-07-18T06:32:25.122Z,1.13
2023-07-18T06:37:26.888Z,1.48
2023-07-18T06:42:28.437Z,1.42
2023-07-18T06:47:30.110Z,1.20
2023-07-18T06:52:34.766Z,1.00
2023-07-18T06:57:37.885Z,0.93
2023-07-18T07:02:39.713Z,1.42
2023-07-18T07:07:41.662Z,0.82
2023-07-18T07:12:43.301Z,1.00
2023-07-18T07:17:47.724Z,1.50
2023-07-18T07:22:49.759Z,1.23
2023-07-18T07:27:51.446Z,1.55
2023-07-18T07:32:53.354Z,1.50
2023-07-18T07:37:55.299Z,1.23
2023-07-18T07:42:56.906Z,1.30
2023-07-18T07:47:58.702Z,1.10
2023-07-18T07:53:00.529Z,1.20
2023-07-18T07:58:02.128Z,1.38
2023-07-18T08:03:03.774Z,1.33
2023-07-18T08:08:05.832Z,1.50
2023-07-18T08:13:07.522Z,0.90
2023-07-18T08:18:09.178Z,1.52
2023-07-18T08:23:10.993Z,1.45
2023-07-18T08:28:12.699Z,1.40
2023-07-18T08:33:16.463Z,1.10
2023-07-18T08:38:18.391Z,1.60
2023-07-18T08:43:20.132Z,1.50
2023-07-18T08:48:21.865Z,1.67
2023-07-18T08:53:23.687Z,1.48
2023-07-18T08:58:27.198Z,1.27
2023-07-18T09:03:28.935Z,1.40
2023-07-18T09:08:45.800Z,1.40
2023-07-18T09:13:48.447Z,1.45
2023-07-18T09:18:51.280Z,1.25
2023-07-18T09:23:54.238Z,1.50
2023-07-18T09:28:57.026Z,1.77
2023-07-18T09:33:58.761Z,1.67
2023-07-18T09:39:01.194Z,1.60
2023-07-18T09:44:26.916Z,1.42
2023-07-18T09:54:35.017Z,1.53
2023-07-18T09:59:39.778Z,1.30
2023-07-18T10:04:41.558Z,1.60
2023-07-18T10:09:43.641Z,1.33
2023-07-18T10:14:57.715Z,1.42
2023-07-18T10:19:59.715Z,1.50
2023-07-18T10:25:08.416Z,1.40
2023-07-18T10:30:14.464Z,1.50
2023-07-18T10:35:19.091Z,1.50
2023-07-18T10:40:37.959Z,1.40
2023-07-18T10:45:44.064Z,1.38
2023-07-18T10:50:47.688Z,1.60
2023-07-18T10:55:50.088Z,1.20
2023-07-18T11:00:52.308Z,1.42
2023-07-18T11:05:54.788Z,1.40
2023-07-18T11:11:01.724Z,1.50
2023-07-18T11:16:15.327Z,1.40
2023-07-18T11:21:21.054Z,1.35
2023-07-18T11:26:22.875Z,1.30
2023-07-18T11:31:39.564Z,1.45
2023-07-18T11:36:43.690Z,1.70
2023-07-18T11:41:46.005Z,1.38
2023-07-18T11:46:47.615Z,1.90
2023-07-18T11:51:49.461Z,1.25
2023-07-18T11:56:51.067Z,1.77
2023-07-18T12:01:52.734Z,1.60
2023-07-18T12:06:54.601Z,1.65
2023-07-18T12:11:56.368Z,1.50
2023-07-18T12:16:58.134Z,1.63
2023-07-18T12:21:59.924Z,1.45
2023-07-18T12:27:06.661Z,1.40
2023-07-18T12:32:10.824Z,1.45
2023-07-18T12:37:12.637Z,1.52
2023-07-18T12:42:14.486Z,1.38
2023-07-18T12:47:16.216Z,1.48
2023-07-18T12:52:17.807Z,1.45
2023-07-18T12:57:19.454Z,1.85
2023-07-18T13:02:21.378Z,2.17
2023-07-18T13:07:22.969Z,1.52
2023-07-18T13:12:24.920Z,1.73
2023-07-18T13:17:26.508Z,1.88
2023-07-18T13:22:28.255Z,1.80
2023-07-18T13:27:29.891Z,2.03
2023-07-18T13:32:32.272Z,1.80
2023-07-18T13:37:34.356Z,2.10
2023-07-18T13:42:35.937Z,1.83
2023-07-18T13:47:44.546Z,2.20
2023-07-18T13:52:47.141Z,1.95
2023-07-18T13:57:48.744Z,2.00
2023-07-18T14:02:50.925Z,2.25
2023-07-18T14:07:52.631Z,2.10
2023-07-18T14:12:54.232Z,2.13
2023-07-18T14:17:55.899Z,2.35
2023-07-18T14:22:57.562Z,2.60
2023-07-18T14:27:59.486Z,2.00
2023-07-18T14:33:06.834Z,2.58
2023-07-18T14:38:09.211Z,2.40
2023-07-18T14:43:11.549Z,3.28
2023-07-18T14:48:13.169Z,2.60
2023-07-18T14:53:14.749Z,2.63
2023-07-18T14:58:16.582Z,3.00
2023-07-18T15:03:18.207Z,2.70
2023-07-18T15:08:19.818Z,2.28
2023-07-18T15:13:21.467Z,2.35
2023-07-18T15:18:23.193Z,2.53
2023-07-18T15:23:24.755Z,2.63
2023-07-18T15:28:26.558Z,2.70
2023-07-18T15:33:28.378Z,3.03
2023-07-18T15:38:29.993Z,2.53
2023-07-18T15:43:33.332Z,2.40
2023-07-18T15:48:34.983Z,2.60
2023-07-18T15:53:36.563Z,2.85
2023-07-18T15:58:38.170Z,2.42
2023-07-18T16:03:40.036Z,2.55
2023-07-18T16:08:41.871Z,2.42
2023-07-18T16:13:47.249Z,2.50
2023-07-18T16:19:01.091Z,2.72
2023-07-18T16:24:03.102Z,2.60
2023-07-18T16:29:04.687Z,2.63
2023-07-18T16:34:06.384Z,3.10
2023-07-18T16:39:07.983Z,3.13
2023-07-18T16:44:10.951Z,2.78
2023-07-18T16:49:12.676Z,2.83
2023-07-18T16:54:14.268Z,2.83
2023-07-18T16:59:15.952Z,2.70
2023-07-18T17:04:17.794Z,2.97
2023-07-18T17:09:19.567Z,2.72
2023-07-18T17:14:21.212Z,2.83
2023-07-18T17:19:22.799Z,3.10
2023-07-18T17:24:26.881Z,2.80
2023-07-18T17:29:28.571Z,3.45
2023-07-18T17:34:30.244Z,3.33
2023-07-18T17:39:36.174Z,3.88
2023-07-18T17:44:37.803Z,3.65
2023-07-18T17:49:39.370Z,3.00
2023-07-18T17:54:41.305Z,3.83
2023-07-18T17:59:42.978Z,3.75
2023-07-18T18:04:47.682Z,3.15
2023-07-18T18:09:49.314Z,3.90
2023-07-18T18:14:51.032Z,3.33
2023-07-18T18:19:52.681Z,3.85
2023-07-18T18:24:54.287Z,3.63
2023-07-18T18:29:55.891Z,3.90
2023-07-18T18:35:07.133Z,4.38
2023-07-18T18:40:10.761Z,3.75
2023-07-18T18:45:13.368Z,4.30
2023-07-18T18:50:17.028Z,3.70
2023-07-18T18:55:20.247Z,4.32
2023-07-18T19:00:22.744Z,4.38
2023-07-18T19:05:24.509Z,4.72
2023-07-18T19:10:27.752Z,3.58
2023-07-18T19:15:29.650Z,4.60
2023-07-18T19:20:31.221Z,4.45
2023-07-18T19:25:33.140Z,4.65
2023-07-18T19:30:34.863Z,4.30
2023-07-18T19:35:37.211Z,4.22
2023-07-18T19:40:38.816Z,4.25
2023-07-18T19:45:40.527Z,4.45
2023-07-18T19:50:43.921Z,4.95
2023-07-18T19:55:46.343Z,4.15
2023-07-18T20:00:47.937Z,4.10
2023-07-18T20:05:49.751Z,4.70
2023-07-18T20:10:51.365Z,4.68
2023-07-18T20:15:54.657Z,4.78
2023-07-18T20:20:56.331Z,5.07
2023-07-18T20:26:00.068Z,4.88
2023-07-18T20:31:03.565Z,5.35
2023-07-18T20:36:05.407Z,4.70
2023-07-18T20:41:09.897Z,5.20
2023-07-18T20:46:14.176Z,4.95
2023-07-18T20:51:15.815Z,5.00
2023-07-18T20:56:17.462Z,4.85
2023-07-18T21:01:19.631Z,4.90
2023-07-18T21:06:21.700Z,4.85
2023-07-18T21:11:23.404Z,5.38
2023-07-18T21:16:25.361Z,5.32
2023-07-18T21:21:27.047Z,4.40
2023-07-18T21:26:28.662Z,4.47
2023-07-18T21:31:30.343Z,4.30
2023-07-18T21:36:32.070Z,3.83
2023-07-18T21:41:34.714Z,3.65
2023-07-18T21:46:36.344Z,4.25
2023-07-18T21:51:40.917Z,3.55
2023-07-18T21:56:42.516Z,3.85
2023-07-18T22:01:44.282Z,3.72
2023-07-18T22:06:45.895Z,4.30
2023-07-18T22:11:48.009Z,4.13
2023-07-18T22:16:49.691Z,3.72
2023-07-18T22:21:51.328Z,3.97
2023-07-18T22:26:52.947Z,4.30
2023-07-18T22:31:54.572Z,4.38
2023-07-18T22:36:56.342Z,4.22
2023-07-18T22:42:21.753Z,4.32
2023-07-18T22:47:23.431Z,4.00
2023-07-18T22:52:25.061Z,3.65
2023-07-18T22:57:26.707Z,4.07
2023-07-18T23:02:28.345Z,4.22
2023-07-18T23:07:30.025Z,4.05
2023-07-18T23:12:31.775Z,4.10
2023-07-18T23:17:33.368Z,4.50
2023-07-18T23:22:35.216Z,4.25
2023-07-18T23:27:37.396Z,4.20
2023-07-18T23:32:43.434Z,3.50
2023-07-18T23:37:45.086Z,3.50
2023-07-18T23:42:46.741Z,3.70
2023-07-18T23:47:48.422Z,3.95
2023-07-18T23:52:50.078Z,3.47
2023-07-18T23:57:52.004Z,3.80
